Ocean Tomo — 3FID9 — position and weather

sailwx.info

Track history (hours):
 
Tides and Currents Weather Stations Pressure Air Temp Water Temp Dewpoint Dewpoint Depression Visibility Wind Speed Wind Dir Waves Ship Positions

Ocean Tomo

Last reported at 2017-Apr-27 13:35 UTC. Time now 2017-May-01 02:31 UTC.
Position N 37°49' E 122°28'.

Length 190 m; draft 6.3 m.

Type: Ship. MMSI: 372951000.

Date/timePositionNaut miles runAvg speedWind from/ knotsBaromVisibWave heightAir tempDewpointWater temp
2017-Apr-27 13:35N 37°49' E 122°28'213.7
2017-Apr-27 13:27N 37°50' E 122°26'1013.8
2017-Apr-27 12:44N 37°55' E 122°15'313.5
2017-Apr-27 12:30N 37°57' E 122°11'713.8
2017-Apr-27 11:57N 38°01' E 122°03'913.9
2017-Apr-27 11:20N 38°05' E 121°54'514.2
2017-Apr-27 11:00N 38°08' E 121°49'714.3
2017-Apr-27 10:30N 38°11' E 121°41'714.5
2017-Apr-27 10:01N 38°15' E 121°33'714.5
2017-Apr-27 09:30N 38°19' E 121°25'714.8
2017-Apr-27 09:00N 38°23' E 121°17'714.5
2017-Apr-27 08:31N 38°26' E 121°09'714.4
2017-Apr-27 08:00N 38°30' E 121°01'713.6
2017-Apr-27 07:30N 38°33' E 120°53'713.8
2017-Apr-27 07:00N 38°34' E 120°45'713.6
2017-Apr-27 06:30N 38°35' E 120°36'713.3
2017-Apr-27 06:00N 38°36' E 120°28'612.9
2017-Apr-27 05:30N 38°37' E 120°20'713.0
2017-Apr-27 05:00N 38°38' E 120°11'713.0
2017-Apr-27 04:30N 38°39' E 120°03'713.0
2017-Apr-27 04:00N 38°40' E 119°55'613.2
2017-Apr-27 03:30N 38°41' E 119°46'713.4
2017-Apr-27 03:00N 38°42' E 119°38'713.7
2017-Apr-27 02:30N 38°43' E 119°29'714.0
2017-Apr-27 02:01N 38°44' E 119°20'714.3
2017-Apr-27 01:30N 38°45' E 119°11'714.5
2017-Apr-27 01:00N 38°46' E 119°02'715.0
2017-Apr-27 00:31N 38°47' E 118°53'815.3
2017-Apr-27 00:00N 38°48' E 118°43'815.6
2017-Apr-26 23:31N 38°49' E 118°33'815.8
2017-Apr-26 23:00N 38°50' E 118°23'  
2017-Apr-24 17:52N 38°48' E 119°06'513.8
2017-Apr-24 17:30N 38°47' E 119°12'714.1
2017-Apr-24 17:00N 38°46' E 119°21'714.2
2017-Apr-24 16:30N 38°46' E 119°30'714.1
2017-Apr-24 16:00N 38°44' E 119°39'714.2
2017-Apr-24 15:30N 38°44' E 119°48'714.4
2017-Apr-24 15:00N 38°43' E 119°57'714.7
2017-Apr-24 14:30N 38°42' E 120°06'1414.4
2017-Apr-24 13:30N 38°41' E 120°25'914.5
2017-Apr-24 12:54N 38°40' E 120°36'614.2
2017-Apr-24 12:29N 38°38' E 120°43'814.0
2017-Apr-24 11:56N 38°37' E 120°53'814.2
2017-Apr-24 11:22N 38°33' E 121°02'1113.9
2017-Apr-24 10:34N 38°27' E 121°13'313.8
2017-Apr-24 10:22N 38°26' E 121°17'3613.8
2017-Apr-24 07:48N 38°04' E 121°52'513.8
2017-Apr-24 07:27N 38°01' E 121°57'613.9
2017-Apr-24 07:00N 37°58' E 122°04'  
Track history (hours):
 
Tides and Currents Weather Stations Pressure Air Temp Water Temp Dewpoint Dewpoint Depression Visibility Wind Speed Wind Dir Waves Ship Positions

Ocean Tomo

Last reported at 2017-Apr-27 13:35 UTC. Time now 2017-May-01 02:31 UTC.
Position N 37°49' E 122°28'.

Length 190 m; draft 6.3 m.

Type: Ship. MMSI: 372951000.

Date/timePositionNaut miles runAvg speedWind from/ knotsBaromVisibWave heightAir tempDewpointWater temp
2017-Apr-27 13:35N 37°49' E 122°28'213.7
2017-Apr-27 13:27N 37°50' E 122°26'1013.8
2017-Apr-27 12:44N 37°55' E 122°15'313.5
2017-Apr-27 12:30N 37°57' E 122°11'713.8
2017-Apr-27 11:57N 38°01' E 122°03'913.9
2017-Apr-27 11:20N 38°05' E 121°54'514.2
2017-Apr-27 11:00N 38°08' E 121°49'714.3
2017-Apr-27 10:30N 38°11' E 121°41'714.5
2017-Apr-27 10:01N 38°15' E 121°33'714.5
2017-Apr-27 09:30N 38°19' E 121°25'714.8
2017-Apr-27 09:00N 38°23' E 121°17'714.5
2017-Apr-27 08:31N 38°26' E 121°09'714.4
2017-Apr-27 08:00N 38°30' E 121°01'713.6
2017-Apr-27 07:30N 38°33' E 120°53'713.8
2017-Apr-27 07:00N 38°34' E 120°45'713.6
2017-Apr-27 06:30N 38°35' E 120°36'713.3
2017-Apr-27 06:00N 38°36' E 120°28'612.9
2017-Apr-27 05:30N 38°37' E 120°20'713.0
2017-Apr-27 05:00N 38°38' E 120°11'713.0
2017-Apr-27 04:30N 38°39' E 120°03'713.0
2017-Apr-27 04:00N 38°40' E 119°55'613.2
2017-Apr-27 03:30N 38°41' E 119°46'713.4
2017-Apr-27 03:00N 38°42' E 119°38'713.7
2017-Apr-27 02:30N 38°43' E 119°29'714.0
2017-Apr-27 02:01N 38°44' E 119°20'714.3
2017-Apr-27 01:30N 38°45' E 119°11'714.5
2017-Apr-27 01:00N 38°46' E 119°02'715.0
2017-Apr-27 00:31N 38°47' E 118°53'815.3
2017-Apr-27 00:00N 38°48' E 118°43'815.6
2017-Apr-26 23:31N 38°49' E 118°33'815.8
2017-Apr-26 23:00N 38°50' E 118°23'  
2017-Apr-24 17:52N 38°48' E 119°06'513.8
2017-Apr-24 17:30N 38°47' E 119°12'714.1
2017-Apr-24 17:00N 38°46' E 119°21'714.2
2017-Apr-24 16:30N 38°46' E 119°30'714.1
2017-Apr-24 16:00N 38°44' E 119°39'714.2
2017-Apr-24 15:30N 38°44' E 119°48'714.4
2017-Apr-24 15:00N 38°43' E 119°57'714.7
2017-Apr-24 14:30N 38°42' E 120°06'1414.4
2017-Apr-24 13:30N 38°41' E 120°25'914.5
2017-Apr-24 12:54N 38°40' E 120°36'614.2
2017-Apr-24 12:29N 38°38' E 120°43'814.0
2017-Apr-24 11:56N 38°37' E 120°53'814.2
2017-Apr-24 11:22N 38°33' E 121°02'1113.9
2017-Apr-24 10:34N 38°27' E 121°13'313.8
2017-Apr-24 10:22N 38°26' E 121°17'3613.8
2017-Apr-24 07:48N 38°04' E 121°52'513.8
2017-Apr-24 07:27N 38°01' E 121°57'613.9
2017-Apr-24 07:00N 37°58' E 122°04'  

Dump ship's entire track history